Time;durP1;ratioP1;P1;durP2;ratioP2;P2;SDS_P1;SDS_P2;PMS_P1;PMS_P2;Temp;Humidity;BMP_temperature;BMP_pressure;BME280_temperature;BME280_humidity;BME280_pressure;Samples;Min_cycle;Max_cycle;Signal;HPM_P1;HPM_P2
2024/01/14 00:01:57;;;;;;;1999.90;999.90;;;-2.20;99.90;;;;;;4995536;28;20046;-88
2024/01/14 00:04:23;;;;;;;1999.90;999.90;;;-2.20;99.90;;;;;;4995355;28;20093;-89
2024/01/14 00:06:49;;;;;;;1999.90;999.90;;;-2.20;99.90;;;;;;4995389;28;20457;-88
2024/01/14 00:09:16;;;;;;;1999.90;999.90;;;-2.20;99.90;;;;;;4995270;28;20070;-88
2024/01/14 00:11:41;;;;;;;1999.90;999.90;;;-2.20;99.90;;;;;;4995347;28;20816;-88
2024/01/14 00:14:07;;;;;;;1999.90;999.90;;;-2.10;99.90;;;;;;4994972;28;20130;-88
2024/01/14 00:16:34;;;;;;;1999.90;999.90;;;-2.20;99.90;;;;;;4995312;28;20085;-88
2024/01/14 00:19:01;;;;;;;1999.90;999.90;;;-2.20;99.90;;;;;;4995287;28;20853;-88
2024/01/14 00:21:27;;;;;;;1999.90;999.90;;;-2.00;99.90;;;;;;4995255;28;20039;-88
2024/01/14 00:23:52;;;;;;;1999.90;999.90;;;-2.10;99.90;;;;;;4994864;28;20378;-88
2024/01/14 00:26:18;;;;;;;1999.90;999.90;;;-2.00;99.90;;;;;;4995122;28;20077;-88
2024/01/14 00:28:43;;;;;;;1999.90;999.90;;;-2.20;99.90;;;;;;4995161;28;20552;-88
2024/01/14 00:31:09;;;;;;;1999.90;999.90;;;-2.20;99.90;;;;;;4994861;28;20050;-88
2024/01/14 00:33:35;;;;;;;1999.90;999.90;;;-2.20;99.90;;;;;;4994890;28;20034;-88
2024/01/14 00:36:02;;;;;;;1999.90;999.90;;;-2.20;99.90;;;;;;4995017;28;20114;-88
2024/01/14 00:38:28;;;;;;;1999.90;999.90;;;-2.20;99.90;;;;;;4994966;28;20036;-87
2024/01/14 00:40:54;;;;;;;1999.90;999.90;;;-2.30;99.90;;;;;;4994996;28;20034;-88
2024/01/14 00:43:20;;;;;;;1999.90;999.90;;;-2.20;99.90;;;;;;4994697;28;20038;-88
2024/01/14 00:45:46;;;;;;;1999.90;999.90;;;-2.20;99.90;;;;;;4994791;28;20426;-88
2024/01/14 00:48:11;;;;;;;1999.90;999.90;;;-2.20;99.90;;;;;;4994876;28;20085;-87
2024/01/14 00:50:37;;;;;;;1999.90;999.90;;;-2.20;99.90;;;;;;4994754;28;20466;-87
2024/01/14 00:53:03;;;;;;;1999.90;999.90;;;-2.00;99.90;;;;;;4994583;28;20042;-89
2024/01/14 00:55:28;;;;;;;1999.90;999.90;;;-2.20;99.90;;;;;;4994634;28;20031;-88
2024/01/14 00:57:54;;;;;;;1999.90;999.90;;;-2.20;99.90;;;;;;4994692;28;20054;-88
2024/01/14 01:00:19;;;;;;;1999.90;999.90;;;-2.20;99.90;;;;;;4994799;28;20046;-88
2024/01/14 01:02:45;;;;;;;1999.90;999.90;;;-2.20;99.90;;;;;;4994680;28;20069;-88
2024/01/14 01:05:11;;;;;;;1999.90;999.90;;;-2.20;99.90;;;;;;4994168;28;20045;-88
2024/01/14 01:07:36;;;;;;;1999.90;999.90;;;-1.70;99.90;;;;;;4994893;28;20031;-88
2024/01/14 01:10:03;;;;;;;1999.90;999.90;;;-2.20;99.90;;;;;;4994653;28;20484;-88
2024/01/14 01:12:28;;;;;;;1999.90;999.90;;;-2.20;99.90;;;;;;4994740;28;20031;-87
2024/01/14 01:14:54;;;;;;;1999.90;999.90;;;-2.20;99.90;;;;;;4994161;28;20043;-88
2024/01/14 01:17:20;;;;;;;1999.90;999.90;;;-2.20;99.90;;;;;;4994621;28;20090;-88
2024/01/14 01:19:45;;;;;;;1999.90;999.90;;;-2.20;99.90;;;;;;4994427;28;20039;-88
2024/01/14 01:22:11;;;;;;;1999.90;999.90;;;-2.20;99.90;;;;;;4994320;28;20488;-88
2024/01/14 01:24:38;;;;;;;1999.90;999.90;;;-2.20;99.90;;;;;;4994064;28;20098;-88
2024/01/14 01:27:04;;;;;;;1999.90;999.90;;;-2.20;99.90;;;;;;4994408;28;20031;-88
2024/01/14 01:29:30;;;;;;;1999.90;999.90;;;-2.20;99.90;;;;;;4994410;28;20179;-88
2024/01/14 01:31:56;;;;;;;1999.90;999.90;;;-2.30;99.90;;;;;;4994538;28;20166;-88
2024/01/14 01:34:21;;;;;;;1999.90;999.90;;;-2.30;99.90;;;;;;4994036;28;20042;-87
2024/01/14 01:36:47;;;;;;;1999.90;999.90;;;-2.30;99.90;;;;;;4994376;28;20038;-88
2024/01/14 01:39:14;;;;;;;1999.90;999.90;;;-2.30;99.90;;;;;;4994261;28;20541;-88
2024/01/14 01:41:40;;;;;;;1999.90;999.90;;;-2.30;99.90;;;;;;4994447;28;20042;-88
2024/01/14 01:44:05;;;;;;;1999.90;999.90;;;-2.30;99.90;;;;;;4994151;28;20388;-88
2024/01/14 01:46:32;;;;;;;1999.90;999.90;;;-2.30;99.90;;;;;;4994421;28;20027;-87
2024/01/14 01:48:59;;;;;;;1999.90;999.90;;;-2.30;99.90;;;;;;4994288;28;20045;-88
2024/01/14 01:51:25;;;;;;;1999.90;999.90;;;-2.30;99.90;;;;;;4994100;28;20097;-88
2024/01/14 01:53:54;;;;;;;1999.90;999.90;;;-2.30;99.90;;;;;;4993868;28;20035;-88
2024/01/14 01:56:21;;;;;;;1999.90;999.90;;;-2.30;99.90;;;;;;4993946;28;20043;-87
2024/01/14 01:58:46;;;;;;;1999.90;999.90;;;-2.30;99.90;;;;;;4994185;28;21147;-88
2024/01/14 02:01:12;;;;;;;1999.90;999.90;;;-2.30;99.90;;;;;;4994036;28;20062;-88
2024/01/14 02:03:38;;;;;;;1999.90;999.90;;;-2.30;99.90;;;;;;4993654;28;20027;-88
2024/01/14 02:06:05;;;;;;;1999.90;999.90;;;-2.30;99.90;;;;;;4993950;28;20038;-88
2024/01/14 02:08:31;;;;;;;1999.90;999.90;;;-2.30;99.90;;;;;;4993788;28;20039;-87
2024/01/14 02:10:57;;;;;;;1999.90;999.90;;;-2.30;99.90;;;;;;4993605;28;20394;-88
2024/01/14 02:13:23;;;;;;;1999.90;999.90;;;-2.30;99.90;;;;;;4993484;28;20031;-88
2024/01/14 02:15:48;;;;;;;1999.90;999.90;;;-2.30;99.90;;;;;;4993742;28;20089;-88
2024/01/14 02:18:14;;;;;;;1999.90;999.90;;;-2.30;99.90;;;;;;4996177;28;20035;-88
2024/01/14 02:20:39;;;;;;;1999.90;999.90;;;-2.30;99.90;;;;;;4997125;28;20496;-88
2024/01/14 02:23:10;;;;;;;1999.90;999.90;;;-2.30;99.90;;;;;;4996884;28;20043;-88
2024/01/14 02:25:35;;;;;;;1999.90;999.90;;;-2.40;99.90;;;;;;4997990;28;20035;-87
2024/01/14 02:28:02;;;;;;;1999.90;999.90;;;-2.40;99.90;;;;;;4997652;28;20093;-88
2024/01/14 02:30:28;;;;;;;1999.90;999.90;;;-2.40;99.90;;;;;;4997674;28;20538;-88
2024/01/14 02:32:54;;;;;;;1999.90;999.90;;;-2.30;99.90;;;;;;4997786;28;20035;-88
2024/01/14 02:35:20;;;;;;;1999.90;999.90;;;-2.40;99.90;;;;;;4997023;28;20420;-87
2024/01/14 02:37:47;;;;;;;1999.90;999.90;;;-2.40;99.90;;;;;;4996906;28;20031;-88
2024/01/14 02:40:13;;;;;;;1999.90;999.90;;;-2.20;99.90;;;;;;4996791;28;20093;-87
2024/01/14 02:42:40;;;;;;;1999.90;999.90;;;-2.40;99.90;;;;;;4996939;28;20081;-88
2024/01/14 02:45:07;;;;;;;1999.90;999.90;;;-2.40;99.90;;;;;;4996480;28;20030;-88
2024/01/14 02:47:33;;;;;;;1999.90;999.90;;;-2.40;99.90;;;;;;4996493;28;20077;-87
2024/01/14 02:49:59;;;;;;;1999.90;999.90;;;-2.40;99.90;;;;;;4996489;28;20125;-88
2024/01/14 02:52:24;;;;;;;1999.90;999.90;;;-2.40;99.90;;;;;;4996436;28;20045;-88
2024/01/14 02:54:50;;;;;;;1999.90;999.90;;;-2.30;99.90;;;;;;4996350;28;20039;-88
2024/01/14 02:57:15;;;;;;;1999.90;999.90;;;-2.40;99.90;;;;;;4996515;28;20062;-88
2024/01/14 02:59:41;;;;;;;1999.90;999.90;;;-2.40;99.90;;;;;;4996405;28;20397;-87
2024/01/14 03:02:06;;;;;;;1999.90;999.90;;;-2.40;99.90;;;;;;4996348;28;20114;-87
2024/01/14 03:04:32;;;;;;;1999.90;999.90;;;-2.40;99.90;;;;;;4996297;28;20113;-88
2024/01/14 03:06:58;;;;;;;1999.90;999.90;;;-2.40;99.90;;;;;;4996303;28;20489;-88
2024/01/14 03:09:23;;;;;;;1999.90;999.90;;;-2.40;99.90;;;;;;4996184;28;20035;-88
2024/01/14 03:11:49;;;;;;;1999.90;999.90;;;-2.40;99.90;;;;;;4996144;28;20624;-88
2024/01/14 03:14:14;;;;;;;1999.90;999.90;;;-2.50;99.90;;;;;;4996327;28;20190;-88
2024/01/14 03:16:40;;;;;;;1999.90;999.90;;;-2.40;99.90;;;;;;4996203;28;20049;-88
2024/01/14 03:19:06;;;;;;;1999.90;999.90;;;-2.40;99.90;;;;;;4996230;28;20062;-87
2024/01/14 03:21:32;;;;;;;1999.90;999.90;;;-2.30;99.90;;;;;;4995978;28;20030;-88
2024/01/14 03:23:57;;;;;;;1999.90;999.90;;;-2.40;99.90;;;;;;4996113;28;20491;-88
2024/01/14 03:26:23;;;;;;;1999.90;999.90;;;-2.40;99.90;;;;;;4996002;28;20043;-88
2024/01/14 03:28:49;;;;;;;1999.90;999.90;;;-2.50;99.90;;;;;;4996013;28;20464;-88
2024/01/14 03:31:15;;;;;;;1999.90;999.90;;;-2.50;99.90;;;;;;4995798;28;20042;-88
2024/01/14 03:33:44;;;;;;;1999.90;999.90;;;-2.50;99.90;;;;;;4995646;28;20030;-88
2024/01/14 03:36:16;;;;;;;1999.90;999.90;;;-2.50;99.90;;;;;;4995858;28;20114;-88
2024/01/14 03:38:42;;;;;;;1999.90;999.90;;;-2.40;99.90;;;;;;4995839;28;20053;-88
2024/01/14 03:41:07;;;;;;;1999.90;999.90;;;-2.40;99.90;;;;;;4995756;28;20042;-89
2024/01/14 03:43:33;;;;;;;1999.90;999.90;;;-2.50;99.90;;;;;;4995782;28;20035;-88
2024/01/14 03:45:58;;;;;;;1999.90;999.90;;;-2.50;99.90;;;;;;4995668;28;20042;-88
2024/01/14 03:48:24;;;;;;;1999.90;999.90;;;-2.50;99.90;;;;;;4995744;28;20046;-88
2024/01/14 03:50:49;;;;;;;1999.90;999.90;;;-2.50;99.90;;;;;;4995542;28;20034;-88
2024/01/14 03:53:15;;;;;;;1999.90;999.90;;;-2.50;99.90;;;;;;4995389;28;20034;-88
2024/01/14 03:55:40;;;;;;;1999.90;999.90;;;-2.50;99.90;;;;;;4995595;28;20070;-88
2024/01/14 03:58:06;;;;;;;1999.90;999.90;;;-2.50;99.90;;;;;;4995573;28;20448;-88
2024/01/14 04:00:32;;;;;;;1999.90;999.90;;;-2.50;99.90;;;;;;4995623;28;20062;-88
2024/01/14 04:02:57;;;;;;;1999.90;999.90;;;-2.40;99.90;;;;;;4995644;28;20027;-88
2024/01/14 04:05:23;;;;;;;1999.90;999.90;;;-2.50;99.90;;;;;;4995513;28;20556;-88
2024/01/14 04:07:51;;;;;;;1999.90;999.90;;;-2.50;99.90;;;;;;4995461;28;20066;-88
2024/01/14 04:10:17;;;;;;;1999.90;999.90;;;-2.50;99.90;;;;;;4995277;28;20035;-88
2024/01/14 04:12:43;;;;;;;1999.90;999.90;;;-2.50;99.90;;;;;;4995240;28;20038;-88
2024/01/14 04:15:09;;;;;;;1999.90;999.90;;;-2.50;99.90;;;;;;4995117;28;20038;-88
2024/01/14 04:17:35;;;;;;;1999.90;999.90;;;-2.50;99.90;;;;;;4995169;28;20041;-88
2024/01/14 04:20:00;;;;;;;1999.90;999.90;;;-2.50;99.90;;;;;;4995220;28;20058;-88
2024/01/14 04:22:26;;;;;;;1999.90;999.90;;;-2.50;99.90;;;;;;4996518;28;20101;-89
2024/01/14 04:24:51;;;;;;;1999.90;999.90;;;-2.50;99.90;;;;;;4994942;28;20047;-88
2024/01/14 04:27:17;;;;;;;1999.90;999.90;;;-2.50;99.90;;;;;;4995187;28;20034;-88
2024/01/14 04:29:43;;;;;;;1999.90;999.90;;;-2.50;99.90;;;;;;4995007;28;20109;-88
2024/01/14 04:32:08;;;;;;;1999.90;999.90;;;-2.50;99.90;;;;;;4994973;28;20030;-88
2024/01/14 04:34:34;;;;;;;1999.90;999.90;;;-2.50;99.90;;;;;;4994837;28;20039;-88
2024/01/14 04:37:00;;;;;;;1999.90;999.90;;;-2.50;99.90;;;;;;4995067;28;20109;-88
2024/01/14 04:39:26;;;;;;;1999.90;999.90;;;-2.60;99.90;;;;;;4994549;28;20035;-88
2024/01/14 04:41:52;;;;;;;1999.90;999.90;;;-2.50;99.90;;;;;;4994833;28;20090;-88
2024/01/14 04:44:18;;;;;;;1999.90;999.90;;;-2.50;99.90;;;;;;4994924;28;20045;-88
2024/01/14 04:46:44;;;;;;;1999.90;999.90;;;-2.50;99.90;;;;;;4994806;28;20052;-88
2024/01/14 04:49:09;;;;;;;1999.90;999.90;;;-2.50;99.90;;;;;;4994742;28;20066;-88
2024/01/14 04:51:35;;;;;;;1999.90;999.90;;;-2.50;99.90;;;;;;4994607;28;20066;-88
2024/01/14 04:54:04;;;;;;;1999.90;999.90;;;-2.50;99.90;;;;;;4994512;28;20042;-88
2024/01/14 04:56:30;;;;;;;1999.90;999.90;;;-2.60;99.90;;;;;;4994775;28;20082;-88
2024/01/14 04:58:55;;;;;;;1999.90;999.90;;;-2.60;99.90;;;;;;4994732;28;20130;-88
2024/01/14 05:01:21;;;;;;;1999.90;999.90;;;-2.60;99.90;;;;;;4994633;28;20037;-88
2024/01/14 05:03:47;;;;;;;1999.90;999.90;;;-2.60;99.90;;;;;;4994375;28;20113;-88
2024/01/14 05:06:13;;;;;;;1999.90;999.90;;;-2.60;99.90;;;;;;4996027;28;20089;-88
2024/01/14 05:08:41;;;;;;;1999.90;999.90;;;-2.60;99.90;;;;;;4994545;28;20568;-88
2024/01/14 05:11:07;;;;;;;1999.90;999.90;;;-2.60;99.90;;;;;;4995662;28;20378;-89
2024/01/14 05:13:32;;;;;;;1999.90;999.90;;;-2.60;99.90;;;;;;4994177;28;20130;-88
2024/01/14 05:15:58;;;;;;;1999.90;999.90;;;-2.60;99.90;;;;;;4994557;28;20034;-88
2024/01/14 05:18:23;;;;;;;1999.90;999.90;;;-2.50;99.90;;;;;;4994656;28;20073;-88
2024/01/14 05:20:49;;;;;;;1999.90;999.90;;;-2.50;99.90;;;;;;4994128;28;20039;-88
2024/01/14 05:23:15;;;;;;;1999.90;999.90;;;-2.50;99.90;;;;;;4995571;28;20067;-88
2024/01/14 05:25:41;;;;;;;1999.90;999.90;;;-2.50;99.90;;;;;;4994444;28;20031;-88
2024/01/14 05:28:07;;;;;;;1999.90;999.90;;;-2.20;99.90;;;;;;4994326;28;20121;-88
2024/01/14 05:30:33;;;;;;;1999.90;999.90;;;-2.50;99.90;;;;;;4994265;28;20039;-88
2024/01/14 05:32:58;;;;;;;1999.90;999.90;;;-2.60;99.90;;;;;;4994107;28;20038;-88
2024/01/14 05:35:24;;;;;;;1999.90;999.90;;;-2.60;99.90;;;;;;4994271;28;20034;-88
2024/01/14 05:37:49;;;;;;;1999.90;999.90;;;-2.50;99.90;;;;;;4994288;28;20515;-88
2024/01/14 05:40:15;;;;;;;1999.90;999.90;;;-2.60;99.90;;;;;;4994160;28;20047;-88
2024/01/14 05:42:42;;;;;;;1999.90;999.90;;;-2.60;99.90;;;;;;4993999;28;20042;-88
2024/01/14 05:45:10;;;;;;;1999.90;999.90;;;-2.60;99.90;;;;;;4994114;28;20118;-88
2024/01/14 05:47:36;;;;;;;1999.90;999.90;;;-2.60;99.90;;;;;;4994727;28;20031;-89
2024/01/14 05:50:01;;;;;;;1999.90;999.90;;;-2.60;99.90;;;;;;4994651;28;20043;-88
2024/01/14 05:52:27;;;;;;;1999.90;999.90;;;-2.60;99.90;;;;;;4995825;28;20113;-89
2024/01/14 05:54:52;;;;;;;1999.90;999.90;;;-2.60;99.90;;;;;;4998235;28;20392;-89
2024/01/14 05:57:18;;;;;;;1999.90;999.90;;;-2.60;99.90;;;;;;4997665;28;20043;-89
2024/01/14 05:59:44;;;;;;;1999.90;999.90;;;-2.70;99.90;;;;;;4998346;28;20077;-89
2024/01/14 06:02:09;;;;;;;1999.90;999.90;;;-2.70;99.90;;;;;;4997906;28;20139;-89
2024/01/14 06:04:35;;;;;;;1999.90;999.90;;;-2.60;99.90;;;;;;4997864;28;20046;-89
2024/01/14 06:07:01;;;;;;;1999.90;999.90;;;-2.60;99.90;;;;;;4998129;28;20023;-89
2024/01/14 06:09:26;;;;;;;1999.90;999.90;;;-2.60;99.90;;;;;;4997867;28;20058;-88
2024/01/14 06:11:52;;;;;;;1999.90;999.90;;;-2.60;99.90;;;;;;4998459;28;20045;-89
2024/01/14 06:14:17;;;;;;;1999.90;999.90;;;-2.60;99.90;;;;;;4997475;28;20500;-89
2024/01/14 06:16:43;;;;;;;1999.90;999.90;;;-2.60;99.90;;;;;;4997822;28;20051;-88
2024/01/14 06:19:08;;;;;;;1999.90;999.90;;;-2.60;99.90;;;;;;4998056;28;20496;-88
2024/01/14 06:21:42;;;;;;;1999.90;999.90;;;-2.60;99.90;;;;;;4997151;28;20404;-88
2024/01/14 06:24:12;;;;;;;1999.90;999.90;;;-2.60;99.90;;;;;;4997174;28;20511;-88
2024/01/14 06:26:38;;;;;;;1999.90;999.90;;;-2.60;99.90;;;;;;5004056;28;20042;-88
2024/01/14 06:29:03;;;;;;;1999.90;999.90;;;-2.60;99.90;;;;;;5002406;28;20031;-87
2024/01/14 06:31:29;;;;;;;1999.90;999.90;;;-2.60;99.90;;;;;;4999941;28;20043;-88
2024/01/14 06:33:55;;;;;;;1999.90;999.90;;;-2.60;99.90;;;;;;4997933;28;20093;-87
2024/01/14 06:36:21;;;;;;;1999.90;999.90;;;-2.60;99.90;;;;;;4998170;28;20042;-88
2024/01/14 06:38:47;;;;;;;1999.90;999.90;;;-2.60;99.90;;;;;;4998479;28;20194;-88
2024/01/14 06:41:19;;;;;;;1999.90;999.90;;;-2.60;99.90;;;;;;4997821;28;20619;-89
2024/01/14 06:43:46;;;;;;;1999.90;999.90;;;-2.60;99.90;;;;;;5000157;28;20039;-89
2024/01/14 06:46:12;;;;;;;1999.90;999.90;;;-2.60;99.90;;;;;;4998075;28;20042;-89
2024/01/14 06:48:38;;;;;;;1999.90;999.90;;;-2.60;99.90;;;;;;4998873;28;20039;-89
2024/01/14 06:51:04;;;;;;;1999.90;999.90;;;-2.60;99.90;;;;;;4997247;28;20049;-89
2024/01/14 06:53:29;;;;;;;1999.90;999.90;;;-2.60;99.90;;;;;;4997144;28;20394;-89
2024/01/14 06:55:55;;;;;;;1999.90;999.90;;;-2.60;99.90;;;;;;4997555;28;20034;-89
2024/01/14 06:58:20;;;;;;;1999.90;999.90;;;-2.60;99.90;;;;;;4997558;28;20037;-89
2024/01/14 07:00:46;;;;;;;1999.90;999.90;;;-2.50;99.90;;;;;;4998400;28;20031;-88
2024/01/14 07:03:12;;;;;;;1999.90;999.90;;;-2.60;99.90;;;;;;4998824;28;20083;-87
2024/01/14 07:05:37;;;;;;;1999.90;999.90;;;-2.40;99.90;;;;;;4998393;28;20053;-88
2024/01/14 07:08:05;;;;;;;1999.90;999.90;;;-2.60;99.90;;;;;;4998120;28;20062;-88
2024/01/14 07:10:31;;;;;;;1999.90;999.90;;;-2.60;99.90;;;;;;4998448;28;20046;-89
2024/01/14 07:12:57;;;;;;;1999.90;999.90;;;-2.60;99.90;;;;;;4997875;28;20063;-88
2024/01/14 07:15:23;;;;;;;1999.90;999.90;;;-2.60;99.90;;;;;;4997342;28;20086;-88
2024/01/14 07:17:49;;;;;;;1999.90;999.90;;;-2.60;99.90;;;;;;4997746;28;20057;-88
2024/01/14 07:20:15;;;;;;;1999.90;999.90;;;-2.60;99.90;;;;;;4996730;28;20042;-88
2024/01/14 07:22:41;;;;;;;1999.90;999.90;;;-2.40;99.90;;;;;;5001743;28;20034;-88
2024/01/14 07:25:08;;;;;;;1999.90;999.90;;;-2.60;99.90;;;;;;4996791;28;20050;-89
2024/01/14 07:27:34;;;;;;;1999.90;999.90;;;-2.60;99.90;;;;;;4997647;28;20540;-89
2024/01/14 07:30:00;;;;;;;1999.90;999.90;;;-2.60;99.90;;;;;;4997902;28;20180;-88
2024/01/14 07:32:25;;;;;;;1999.90;999.90;;;-2.60;99.90;;;;;;4996634;28;20058;-87
2024/01/14 07:34:53;;;;;;;1999.90;999.90;;;-2.60;99.90;;;;;;4996270;28;20051;-88
2024/01/14 07:37:18;;;;;;;1999.90;999.90;;;-2.50;99.90;;;;;;4996607;28;20030;-88
2024/01/14 07:39:47;;;;;;;1999.90;999.90;;;-2.50;99.90;;;;;;4998807;28;20039;-90
2024/01/14 07:42:13;;;;;;;1999.90;999.90;;;-2.60;99.90;;;;;;4999150;28;20054;-88
2024/01/14 07:44:39;;;;;;;1999.90;999.90;;;-2.50;99.90;;;;;;4996617;28;20454;-88
2024/01/14 07:47:04;;;;;;;1999.90;999.90;;;-2.50;99.90;;;;;;4997044;28;20058;-88
2024/01/14 07:49:30;;;;;;;1999.90;999.90;;;-2.50;99.90;;;;;;4997855;28;20039;-88
2024/01/14 07:51:55;;;;;;;1999.90;999.90;;;-2.50;99.90;;;;;;4996560;28;20485;-89
2024/01/14 07:54:21;;;;;;;1999.90;999.90;;;-2.40;99.90;;;;;;4996191;28;20058;-89
2024/01/14 07:56:47;;;;;;;1999.90;999.90;;;-2.40;99.90;;;;;;4996950;28;20050;-88
2024/01/14 07:59:12;;;;;;;1999.90;999.90;;;-2.30;99.90;;;;;;4997010;28;20031;-88
2024/01/14 08:01:38;;;;;;;1999.90;999.90;;;-2.30;99.90;;;;;;4996126;28;20389;-89
2024/01/14 08:04:04;;;;;;;1999.90;999.90;;;-2.30;99.90;;;;;;4996169;28;20041;-89
2024/01/14 08:06:29;;;;;;;1999.90;999.90;;;-2.30;99.90;;;;;;4995953;28;20041;-88
2024/01/14 08:08:55;;;;;;;1999.90;999.90;;;-2.30;99.90;;;;;;4996024;28;20050;-88
2024/01/14 08:11:21;;;;;;;1999.90;999.90;;;-2.40;99.90;;;;;;4997009;28;20035;-88
2024/01/14 08:13:48;;;;;;;1999.90;999.90;;;-2.30;99.90;;;;;;4979227;28;20047;-89
2024/01/14 08:16:14;;;;;;;1999.90;999.90;;;-2.50;99.90;;;;;;4994700;28;20448;-88
2024/01/14 08:18:40;;;;;;;1999.90;999.90;;;-2.40;99.90;;;;;;4997347;28;20126;-89
2024/01/14 08:21:10;;;;;;;1999.90;999.90;;;-2.40;99.90;;;;;;4995488;28;20568;-89
2024/01/14 08:23:39;;;;;;;1999.90;999.90;;;-2.30;99.90;;;;;;4995246;28;20089;-89
2024/01/14 08:26:06;;;;;;;1999.90;999.90;;;-2.30;99.90;;;;;;4995452;28;20034;-88
2024/01/14 08:28:32;;;;;;;1999.90;999.90;;;-2.30;99.90;;;;;;4995568;28;20042;-89
2024/01/14 08:30:58;;;;;;;1999.90;999.90;;;-2.30;99.90;;;;;;4995538;28;20070;-88
2024/01/14 08:33:27;;;;;;;1999.90;999.90;;;-2.30;99.90;;;;;;4995799;28;20070;-90
2024/01/14 08:35:54;;;;;;;1999.90;999.90;;;-2.30;99.90;;;;;;4995882;28;20034;-89
2024/01/14 08:38:23;;;;;;;1999.90;999.90;;;-2.30;99.90;;;;;;4995288;28;20039;-90
2024/01/14 08:40:50;;;;;;;1999.90;999.90;;;-2.30;99.90;;;;;;4995385;28;20043;-89
2024/01/14 08:43:15;;;;;;;1999.90;999.90;;;-2.40;99.90;;;;;;4994677;28;20089;-90
2024/01/14 08:45:50;;;;;;;1999.90;999.90;;;-2.30;99.90;;;;;;4995135;28;20146;-89
2024/01/14 08:48:18;;;;;;;1999.90;999.90;;;-2.30;99.90;;;;;;4995500;28;20539;-90
2024/01/14 08:50:56;;;;;;;1999.90;999.90;;;-2.30;99.90;;;;;;4995429;28;20504;-90
2024/01/14 08:53:29;;;;;;;1999.90;999.90;;;-2.20;99.90;;;;;;4995092;28;20038;-89
2024/01/14 08:55:57;;;;;;;1999.90;999.90;;;-2.10;99.90;;;;;;4995349;28;20046;-89
2024/01/14 08:58:34;;;;;;;1999.90;999.90;;;-2.10;99.90;;;;;;4994765;28;20034;-89
2024/01/14 09:00:59;;;;;;;1999.90;999.90;;;-1.90;99.90;;;;;;4995065;28;20035;-88
2024/01/14 09:03:34;;;;;;;1999.90;999.90;;;-1.90;99.90;;;;;;4994532;28;20511;-90
2024/01/14 09:06:03;;;;;;;1999.90;999.90;;;-1.80;99.90;;;;;;4994697;28;20125;-90
2024/01/14 09:09:24;;;;;;;1999.90;999.90;;;-1.50;99.90;;;;;;4995197;28;20512;-90
2024/01/14 09:11:49;;;;;;;1999.90;999.90;;;-1.70;99.90;;;;;;4994318;28;20062;-90
2024/01/14 09:14:15;;;;;;;1999.90;999.90;;;-1.70;99.90;;;;;;5025699;22;20134;-80
2024/01/14 09:16:41;;;;;;;1999.90;999.90;;;-1.60;99.90;;;;;;5018101;28;20052;-80
2024/01/14 09:19:07;;;;;;;1999.90;999.90;;;-1.60;99.90;;;;;;5019723;28;20492;-79
2024/01/14 09:21:33;;;;;;;1999.90;999.90;;;-1.60;99.90;;;;;;5019447;28;20037;-81
2024/01/14 09:23:58;;;;;;;1999.90;999.90;;;-1.70;99.90;;;;;;5019064;28;20037;-81
2024/01/14 09:26:24;;;;;;;1999.90;999.90;;;-1.60;99.90;;;;;;5019361;28;20044;-81
2024/01/14 09:28:49;;;;;;;1999.90;999.90;;;-1.70;99.90;;;;;;5022169;28;20034;-83
2024/01/14 09:31:15;;;;;;;1999.90;999.90;;;-1.70;99.90;;;;;;5026849;28;20102;-82
2024/01/14 09:33:43;;;;;;;1999.90;999.90;;;-1.70;99.90;;;;;;5023001;28;20511;-85
2024/01/14 09:36:09;;;;;;;1999.90;999.90;;;-1.60;99.90;;;;;;5024821;28;20526;-84
2024/01/14 09:38:35;;;;;;;1999.90;999.90;;;-1.40;99.90;;;;;;5021864;28;20026;-83
2024/01/14 09:41:22;;;;;;;1999.90;999.90;;;-1.40;99.90;;;;;;5030275;28;20042;-82
2024/01/14 09:43:50;;;;;;;1999.90;999.90;;;-1.30;99.90;;;;;;5027954;28;20557;-82
2024/01/14 09:46:17;;;;;;;1999.90;999.90;;;-1.20;99.90;;;;;;5028032;28;20047;-83
2024/01/14 09:48:46;;;;;;;1999.90;999.90;;;-1.10;99.90;;;;;;5029878;28;20078;-82
2024/01/14 09:51:14;;;;;;;1999.90;999.90;;;-1.00;99.90;;;;;;5032050;28;20042;-83
2024/01/14 09:53:40;;;;;;;1999.90;999.90;;;-0.60;99.90;;;;;;5030549;28;20543;-84
2024/01/14 09:56:09;;;;;;;1999.90;999.90;;;-0.80;99.90;;;;;;5029149;28;20530;-83
2024/01/14 09:58:36;;;;;;;1999.90;999.90;;;-0.70;99.90;;;;;;5026059;28;20062;-82
2024/01/14 10:01:04;;;;;;;1999.90;999.90;;;-0.50;99.90;;;;;;5028683;28;20054;-82
2024/01/14 10:03:30;;;;;;;1999.90;999.90;;;-0.40;99.90;;;;;;5027727;28;20034;-81
2024/01/14 10:05:56;;;;;;;1999.90;999.90;;;-0.40;99.90;;;;;;5025909;28;20849;-82
2024/01/14 10:08:22;;;;;;;1999.90;999.90;;;-0.40;99.90;;;;;;5026629;28;20045;-83
2024/01/14 10:10:55;;;;;;;1999.90;999.90;;;-0.60;99.90;;;;;;5028784;28;20042;-83
2024/01/14 10:13:23;;;;;;;1999.90;999.90;;;-0.60;99.90;;;;;;5020997;28;20030;-84
2024/01/14 10:15:49;;;;;;;1999.90;999.90;;;-0.60;99.90;;;;;;5019229;28;20045;-82
2024/01/14 10:18:17;;;;;;;1999.90;999.90;;;-0.60;99.90;;;;;;5020496;28;20046;-84
2024/01/14 10:20:43;;;;;;;1999.90;999.90;;;-0.60;99.90;;;;;;5021395;28;20053;-84
2024/01/14 10:23:09;;;;;;;1999.90;999.90;;;-0.60;99.90;;;;;;5036437;28;20034;-81
2024/01/14 10:25:34;;;;;;;1999.90;999.90;;;-0.70;99.90;;;;;;5028276;28;20034;-81
2024/01/14 10:28:07;;;;;;;1999.90;999.90;;;-0.70;99.90;;;;;;5019395;28;20106;-81
2024/01/14 10:30:32;;;;;;;1999.90;999.90;;;-0.70;99.90;;;;;;5020181;28;20038;-82
2024/01/14 10:32:58;;;;;;;1999.90;999.90;;;-0.80;99.90;;;;;;5018474;28;20507;-81
2024/01/14 10:35:24;;;;;;;1999.90;999.90;;;-0.70;99.90;;;;;;5018231;28;20491;-82
2024/01/14 10:37:50;;;;;;;1999.90;999.90;;;-0.60;99.90;;;;;;5014887;28;20042;-81
2024/01/14 10:40:17;;;;;;;1999.90;999.90;;;-0.50;99.90;;;;;;5015925;28;20035;-80
2024/01/14 10:42:43;;;;;;;1999.90;999.90;;;-0.30;99.90;;;;;;5015381;28;20026;-81
2024/01/14 10:45:08;;;;;;;1999.90;999.90;;;-0.10;99.90;;;;;;5016340;28;20045;-82
2024/01/14 10:47:34;;;;;;;1999.90;999.90;;;0.00;99.90;;;;;;5017749;28;20054;-83
2024/01/14 10:50:01;;;;;;;1999.90;999.90;;;-0.10;99.90;;;;;;5015953;28;20039;-82
2024/01/14 10:52:32;;;;;;;1999.90;999.90;;;-0.30;99.90;;;;;;5018424;28;20037;-82
2024/01/14 10:55:01;;;;;;;1999.90;999.90;;;-0.30;99.90;;;;;;5016034;28;20039;-83
2024/01/14 10:57:35;;;;;;;1999.90;999.90;;;-0.30;99.90;;;;;;5016109;28;20031;-82
2024/01/14 11:00:06;;;;;;;1999.90;999.90;;;-0.40;99.90;;;;;;5016082;28;20030;-83
2024/01/14 11:02:34;;;;;;;1999.90;999.90;;;-0.40;99.90;;;;;;5017060;28;20026;-83
2024/01/14 11:05:00;;;;;;;1999.90;999.90;;;-0.40;99.90;;;;;;5015980;28;20034;-81
2024/01/14 11:07:27;;;;;;;1999.90;999.90;;;-0.40;99.90;;;;;;5015902;28;20039;-85
2024/01/14 11:09:54;;;;;;;1999.90;999.90;;;-0.40;99.90;;;;;;5015596;28;20042;-82
2024/01/14 11:12:27;;;;;;;1999.90;999.90;;;-0.30;99.90;;;;;;5015263;28;20598;-86
2024/01/14 11:15:08;;;;;;;1999.90;999.90;;;-0.20;99.90;;;;;;5015127;28;20494;-84
2024/01/14 11:17:42;;;;;;;1999.90;999.90;;;0.00;99.90;;;;;;5015338;28;20042;-85
2024/01/14 11:20:16;;;;;;;1999.90;999.90;;;0.20;99.90;;;;;;5016335;28;20031;-85
2024/01/14 11:22:43;;;;;;;1999.90;999.90;;;0.50;99.90;;;;;;5017016;28;20109;-86
2024/01/14 11:25:14;;;;;;;1999.90;999.90;;;0.50;99.90;;;;;;5015447;28;20077;-84
2024/01/14 11:27:39;;;;;;;1999.90;999.90;;;0.60;99.90;;;;;;5015369;28;20495;-84
2024/01/14 11:30:16;;;;;;;1999.90;999.90;;;0.90;99.90;;;;;;4997436;28;20043;-84
2024/01/14 11:32:42;;;;;;;1999.90;999.90;;;1.00;99.90;;;;;;4995660;28;20110;-83
2024/01/14 11:35:09;;;;;;;1999.90;999.90;;;1.10;99.90;;;;;;5012080;28;20548;-84
2024/01/14 11:37:38;;;;;;;1999.90;999.90;;;1.30;99.90;;;;;;4997383;28;20034;-83
2024/01/14 11:40:07;;;;;;;1999.90;999.90;;;1.50;99.90;;;;;;5014176;28;20027;-84
2024/01/14 11:42:34;;;;;;;1999.90;999.90;;;1.40;99.90;;;;;;5013262;28;20086;-83
2024/01/14 11:45:00;;;;;;;1999.90;999.90;;;1.40;99.90;;;;;;5013779;28;20039;-83
2024/01/14 11:47:43;;;;;;;1999.90;999.90;;;1.50;99.90;;;;;;4997490;28;20039;-83
2024/01/14 11:50:10;;;;;;;1999.90;999.90;;;1.60;99.90;;;;;;4996820;28;20043;-84
2024/01/14 11:52:36;;;;;;;1999.90;999.90;;;1.50;99.90;;;;;;4999890;28;20522;-83
2024/01/14 11:55:05;;;;;;;1999.90;999.90;;;1.30;99.90;;;;;;4996265;28;20035;-83
2024/01/14 11:57:32;;;;;;;1999.90;999.90;;;1.20;99.90;;;;;;4997481;28;20041;-85